Time;durP1;ratioP1;P1;durP2;ratioP2;P2;SDS_P1;SDS_P2;PMS_P1;PMS_P2;Temp;Humidity;BMP_temperature;BMP_pressure;BME280_temperature;BME280_humidity;BME280_pressure;Samples;Min_cycle;Max_cycle;Signal;HPM_P1;HPM_P2
2021/12/05 00:24:16;;;;;;;;;;;1.80;99.90;;;;;;5051787;28;19909;-79
2021/12/05 00:26:46;;;;;;;;;;;1.80;99.90;;;;;;5051842;28;19924;-80
2021/12/05 00:57:56;;;;;;;;;;;1.80;99.90;;;;;;5051500;28;19909;-79
2021/12/05 01:08:35;;;;;;;;;;;1.70;99.90;;;;;;5051399;28;19987;-77
2021/12/05 01:15:57;;;;;;;;;;;1.60;99.90;;;;;;5051199;28;20476;-77
2021/12/05 01:18:23;;;;;;;;;;;1.60;99.90;;;;;;5051685;28;19995;-77
2021/12/05 01:20:55;;;;;;;;;;;1.60;99.90;;;;;;5050458;28;19912;-78
2021/12/05 01:23:31;;;;;;;;;;;1.60;99.90;;;;;;5049210;28;19912;-77
2021/12/05 01:26:05;;;;;;;;;;;1.60;99.90;;;;;;5045699;28;19916;-78
2021/12/05 01:28:50;;;;;;;;;;;1.60;99.90;;;;;;5051169;28;19917;-77
2021/12/05 01:32:10;;;;;;;;;;;1.60;99.90;;;;;;5050938;28;19909;-77
2021/12/05 02:45:25;;;;;;;;;;;1.90;99.90;;;;;;5048666;28;19909;-79
2021/12/05 02:47:52;;;;;;;;;;;1.90;99.90;;;;;;5053797;28;19936;-79
2021/12/05 02:50:20;;;;;;;;;;;1.80;99.90;;;;;;5053625;28;19909;-79
2021/12/05 02:52:46;;;;;;;;;;;1.80;99.90;;;;;;5053519;28;19909;-79
2021/12/05 02:55:24;;;;;;;;;;;1.80;99.90;;;;;;5051661;28;20376;-79
2021/12/05 02:57:56;;;;;;;;;;;1.80;99.90;;;;;;5052234;28;20409;-80
2021/12/05 03:00:38;;;;;;;;;;;1.80;99.90;;;;;;5053488;28;19935;-79
2021/12/05 03:03:05;;;;;;;;;;;1.80;99.90;;;;;;5052848;28;19963;-81
2021/12/05 03:05:31;;;;;;;;;;;1.80;99.90;;;;;;5053114;28;20074;-77
2021/12/05 03:08:01;;;;;;;;;;;1.80;99.90;;;;;;5053121;28;20381;-76
2021/12/05 03:10:27;;;;;;;;;;;1.80;99.90;;;;;;5053514;28;19991;-77
2021/12/05 03:12:52;;;;;;;;;;;1.90;99.90;;;;;;5051806;28;19909;-77
2021/12/05 03:15:19;;;;;;;;;;;1.90;99.90;;;;;;5051656;28;20054;-77
2021/12/05 03:17:45;;;;;;;;;;;1.90;99.90;;;;;;5053419;28;19955;-76
2021/12/05 03:20:11;;;;;;;;;;;1.90;99.90;;;;;;5052957;28;20324;-77
2021/12/05 03:22:37;;;;;;;;;;;1.80;99.90;;;;;;5053540;28;19952;-76
2021/12/05 03:25:03;;;;;;;;;;;1.80;99.90;;;;;;5051195;28;19916;-79
2021/12/05 03:27:29;;;;;;;;;;;1.80;99.90;;;;;;5052726;28;19948;-79
2021/12/05 03:29:54;;;;;;;;;;;1.80;99.90;;;;;;5053168;28;19916;-79
2021/12/05 03:32:20;;;;;;;;;;;1.80;99.90;;;;;;5052720;28;19909;-79
2021/12/05 03:34:45;;;;;;;;;;;1.80;99.90;;;;;;5050364;28;19908;-79
2021/12/05 03:37:11;;;;;;;;;;;1.70;99.90;;;;;;5052449;28;19958;-79
2021/12/05 03:39:37;;;;;;;;;;;1.70;99.90;;;;;;5052554;28;19908;-79
2021/12/05 03:42:03;;;;;;;;;;;1.70;99.90;;;;;;5052559;28;19916;-79
2021/12/05 03:44:31;;;;;;;;;;;1.70;99.90;;;;;;5050766;28;19909;-79
2021/12/05 03:46:57;;;;;;;;;;;1.70;99.90;;;;;;5051271;28;20357;-76
2021/12/05 03:49:23;;;;;;;;;;;1.70;99.90;;;;;;5052935;28;19909;-82
2021/12/05 03:51:55;;;;;;;;;;;1.70;99.90;;;;;;5052345;28;20354;-79
2021/12/05 03:54:21;;;;;;;;;;;1.70;99.90;;;;;;5051882;28;19909;-79
2021/12/05 03:56:47;;;;;;;;;;;1.70;99.90;;;;;;5052392;28;19935;-79
2021/12/05 03:59:12;;;;;;;;;;;1.70;99.90;;;;;;5051594;28;20369;-79
2021/12/05 04:01:38;;;;;;;;;;;1.60;99.90;;;;;;5051699;28;20285;-79
2021/12/05 04:04:04;;;;;;;;;;;1.50;99.90;;;;;;5051555;28;19911;-79
2021/12/05 04:06:30;;;;;;;;;;;1.30;99.90;;;;;;5051949;28;19912;-79
2021/12/05 04:08:56;;;;;;;;;;;1.30;99.90;;;;;;5051829;28;19999;-79
2021/12/05 04:11:27;;;;;;;;;;;1.30;99.90;;;;;;5051799;28;20380;-79
2021/12/05 04:13:53;;;;;;;;;;;1.30;99.90;;;;;;5050849;28;19915;-79
2021/12/05 04:16:18;;;;;;;;;;;1.30;99.90;;;;;;5051563;28;19917;-77
2021/12/05 04:18:46;;;;;;;;;;;1.40;99.90;;;;;;5050727;28;20324;-79
2021/12/05 04:21:12;;;;;;;;;;;1.40;99.90;;;;;;5052000;28;20300;-81
2021/12/05 04:23:37;;;;;;;;;;;1.50;99.90;;;;;;5051430;28;19909;-79
2021/12/05 04:26:03;;;;;;;;;;;1.60;99.90;;;;;;5050955;28;20166;-79
2021/12/05 04:28:29;;;;;;;;;;;1.60;99.90;;;;;;5051605;28;19913;-79
2021/12/05 04:30:54;;;;;;;;;;;1.60;99.90;;;;;;5051503;28;19915;-79
2021/12/05 04:33:20;;;;;;;;;;;1.70;99.90;;;;;;5051732;28;20003;-79
2021/12/05 04:35:46;;;;;;;;;;;1.70;99.90;;;;;;5047438;28;20012;-81
2021/12/05 04:38:12;;;;;;;;;;;1.70;99.90;;;;;;5050055;28;19909;-79
2021/12/05 04:40:37;;;;;;;;;;;1.60;99.90;;;;;;5051660;28;19915;-79
2021/12/05 04:43:04;;;;;;;;;;;1.70;99.90;;;;;;5050295;28;19916;-79
2021/12/05 04:45:31;;;;;;;;;;;1.60;99.90;;;;;;5051036;28;19913;-81
2021/12/05 04:47:57;;;;;;;;;;;1.60;99.90;;;;;;5051483;28;19909;-79
2021/12/05 04:50:23;;;;;;;;;;;1.50;99.90;;;;;;5051424;28;19909;-79
2021/12/05 04:52:49;;;;;;;;;;;1.50;99.90;;;;;;5051404;28;20424;-79
2021/12/05 04:55:15;;;;;;;;;;;1.50;99.90;;;;;;5049076;28;20007;-79
2021/12/05 04:57:41;;;;;;;;;;;1.50;99.90;;;;;;5050239;28;19909;-79
2021/12/05 05:00:11;;;;;;;;;;;1.40;99.90;;;;;;5048081;28;19916;-77
2021/12/05 05:02:36;;;;;;;;;;;1.10;99.90;;;;;;5051437;28;20416;-78
2021/12/05 05:05:02;;;;;;;;;;;0.90;99.90;;;;;;5051067;28;19951;-76
2021/12/05 05:07:28;;;;;;;;;;;0.90;99.90;;;;;;5049645;28;19908;-76
2021/12/05 05:10:09;;;;;;;;;;;0.80;99.90;;;;;;5051340;28;19909;-76
2021/12/05 05:12:34;;;;;;;;;;;0.80;99.90;;;;;;5050953;28;19916;-79
2021/12/05 05:15:00;;;;;;;;;;;0.70;99.90;;;;;;5050764;28;19916;-76
2021/12/05 05:17:26;;;;;;;;;;;0.70;99.90;;;;;;5050964;28;19963;-76
2021/12/05 05:19:57;;;;;;;;;;;0.80;99.90;;;;;;5051105;28;20337;-76
2021/12/05 05:46:27;;;;;;;;;;;0.50;99.90;;;;;;5054715;28;19963;-78
2021/12/05 05:49:15;;;;;;;;;;;0.50;99.90;;;;;;5055028;28;19920;-76
2021/12/05 05:51:40;;;;;;;;;;;0.40;99.90;;;;;;5054664;28;19909;-76
2021/12/05 05:54:06;;;;;;;;;;;0.30;99.90;;;;;;5054205;28;19909;-76
2021/12/05 05:56:33;;;;;;;;;;;0.20;99.90;;;;;;5054410;28;19986;-80
2021/12/05 05:59:17;;;;;;;;;;;0.30;99.90;;;;;;5054665;28;19908;-78
2021/12/05 06:04:14;;;;;;;;;;;0.40;99.90;;;;;;5054191;28;19908;-80
2021/12/05 06:06:39;;;;;;;;;;;0.50;99.90;;;;;;5054222;28;20007;-79
2021/12/05 06:09:05;;;;;;;;;;;0.40;99.90;;;;;;5054088;28;19908;-79
2021/12/05 06:11:31;;;;;;;;;;;0.50;99.90;;;;;;5054147;28;19909;-79
2021/12/05 06:13:56;;;;;;;;;;;0.60;99.90;;;;;;5053862;28;19909;-80
2021/12/05 06:16:22;;;;;;;;;;;0.60;99.90;;;;;;5054071;28;19996;-79
2021/12/05 06:18:47;;;;;;;;;;;0.50;99.90;;;;;;5054195;28;19916;-79
2021/12/05 06:21:14;;;;;;;;;;;0.60;99.90;;;;;;5053885;28;20404;-78
2021/12/05 06:23:40;;;;;;;;;;;0.70;99.90;;;;;;5053629;28;19924;-78
2021/12/05 06:26:08;;;;;;;;;;;0.80;99.90;;;;;;5053901;28;19909;-79
2021/12/05 06:28:39;;;;;;;;;;;0.80;99.90;;;;;;5053862;28;19923;-78
2021/12/05 06:46:47;;;;;;;;;;;0.50;99.90;;;;;;5053692;28;19916;-79
2021/12/05 06:49:13;;;;;;;;;;;0.40;99.90;;;;;;5053636;28;19913;-78
2021/12/05 06:51:38;;;;;;;;;;;0.30;99.90;;;;;;5052429;28;20412;-79
2021/12/05 06:54:04;;;;;;;;;;;0.30;99.90;;;;;;5053027;28;19909;-79
2021/12/05 06:56:29;;;;;;;;;;;0.30;99.90;;;;;;5053384;28;19924;-79
2021/12/05 06:58:55;;;;;;;;;;;0.30;99.90;;;;;;5053478;28;20401;-78
2021/12/05 07:01:21;;;;;;;;;;;0.20;99.90;;;;;;5054223;28;20340;-79
2021/12/05 07:03:48;;;;;;;;;;;0.20;99.90;;;;;;5053762;28;20378;-79
2021/12/05 07:06:21;;;;;;;;;;;0.10;99.90;;;;;;5053984;28;19963;-78
2021/12/05 07:08:47;;;;;;;;;;;0.10;99.90;;;;;;5050686;28;20293;-79
2021/12/05 07:11:31;;;;;;;;;;;0.20;99.90;;;;;;5052366;28;19939;-79
2021/12/05 07:16:31;;;;;;;;;;;0.10;99.90;;;;;;5053492;28;19913;-78
2021/12/05 07:24:09;;;;;;;;;;;0.10;99.90;;;;;;5050373;28;19962;-78
2021/12/05 07:42:43;;;;;;;;;;;0.00;99.90;;;;;;5035497;28;19916;-78
2021/12/05 07:45:12;;;;;;;;;;;0.10;99.90;;;;;;5052948;28;19912;-78
2021/12/05 07:47:42;;;;;;;;;;;0.10;99.90;;;;;;5052233;28;19909;-78
2021/12/05 07:50:10;;;;;;;;;;;0.20;99.90;;;;;;5052686;28;20332;-78
2021/12/05 07:52:40;;;;;;;;;;;0.00;99.90;;;;;;5052516;28;20000;-78
2021/12/05 07:55:17;;;;;;;;;;;0.20;99.90;;;;;;5052214;28;19919;-78
2021/12/05 08:00:31;;;;;;;;;;;0.10;99.90;;;;;;5053248;28;19999;-78
2021/12/05 08:16:41;;;;;;;;;;;0.90;99.90;;;;;;5052037;28;20152;-78
2021/12/05 08:19:06;;;;;;;;;;;1.20;99.90;;;;;;5052532;28;20354;-77
2021/12/05 08:21:32;;;;;;;;;;;1.30;99.90;;;;;;5050764;28;19915;-78
2021/12/05 08:23:57;;;;;;;;;;;1.50;99.90;;;;;;5050289;28;19949;-79
2021/12/05 08:26:30;;;;;;;;;;;1.50;99.90;;;;;;5051894;28;19916;-78
2021/12/05 08:29:16;;;;;;;;;;;1.60;99.90;;;;;;5052616;28;20003;-78
2021/12/05 08:32:05;;;;;;;;;;;1.60;99.90;;;;;;5051813;28;19916;-79
2021/12/05 08:34:46;;;;;;;;;;;1.70;99.90;;;;;;5051474;28;20003;-77
2021/12/05 09:38:49;;;;;;;;;;;11.30;98.50;;;;;;5052195;28;19978;-78
2021/12/05 10:01:25;;;;;;;;;;;6.10;99.90;;;;;;5053952;28;19908;-81
2021/12/05 10:07:15;;;;;;;;;;;5.00;99.90;;;;;;5050632;28;19915;-81
2021/12/05 10:19:05;;;;;;;;;;;5.10;99.90;;;;;;5052969;28;19959;-79
2021/12/05 10:35:14;;;;;;;;;;;7.50;99.90;;;;;;5054136;28;19947;-79
2021/12/05 10:37:47;;;;;;;;;;;9.00;99.90;;;;;;5053549;28;19913;-79
2021/12/05 10:40:16;;;;;;;;;;;8.10;99.90;;;;;;5043521;28;19909;-80
2021/12/05 10:42:44;;;;;;;;;;;7.00;99.90;;;;;;5055094;28;19908;-79
2021/12/05 10:45:19;;;;;;;;;;;6.60;99.90;;;;;;5052954;28;19913;-78
2021/12/05 10:47:48;;;;;;;;;;;6.50;99.90;;;;;;5055140;28;19909;-77
2021/12/05 10:50:33;;;;;;;;;;;6.30;99.90;;;;;;5054052;28;19913;-79
2021/12/05 10:53:16;;;;;;;;;;;6.20;99.90;;;;;;5054326;28;19952;-78
2021/12/05 10:55:42;;;;;;;;;;;5.90;99.90;;;;;;5054202;28;19920;-78
2021/12/05 10:58:07;;;;;;;;;;;5.60;99.90;;;;;;5047190;28;19909;-78
2021/12/05 11:00:33;;;;;;;;;;;5.60;99.90;;;;;;5053651;28;19913;-80
2021/12/05 11:03:15;;;;;;;;;;;5.30;99.90;;;;;;5053345;28;20013;-80
2021/12/05 11:05:42;;;;;;;;;;;5.50;99.90;;;;;;5053543;28;19908;-79
2021/12/05 11:08:27;;;;;;;;;;;5.70;99.90;;;;;;5053404;28;19916;-78
2021/12/05 11:11:04;;;;;;;;;;;5.20;99.90;;;;;;5051881;28;19908;-78
2021/12/05 11:13:30;;;;;;;;;;;5.20;99.90;;;;;;5053169;28;20447;-78
2021/12/05 11:15:55;;;;;;;;;;;5.20;99.90;;;;;;5053091;28;19955;-80
2021/12/05 11:18:39;;;;;;;;;;;5.10;99.90;;;;;;5053121;28;19913;-78
2021/12/05 11:21:31;;;;;;;;;;;5.00;99.90;;;;;;5053585;28;19909;-78
2021/12/05 11:24:08;;;;;;;;;;;4.90;99.90;;;;;;5049988;28;19916;-78
2021/12/05 11:26:34;;;;;;;;;;;5.00;99.90;;;;;;5053018;28;19963;-78
2021/12/05 11:28:59;;;;;;;;;;;5.00;99.90;;;;;;5053021;28;19909;-78
2021/12/05 11:31:26;;;;;;;;;;;5.10;99.90;;;;;;5052921;28;19999;-78
2021/12/05 11:33:54;;;;;;;;;;;4.90;99.90;;;;;;5052475;28;19920;-77
2021/12/05 11:36:27;;;;;;;;;;;5.10;99.90;;;;;;5053019;28;19939;-78
2021/12/05 11:38:52;;;;;;;;;;;5.00;99.90;;;;;;5052651;28;19909;-78
2021/12/05 11:41:23;;;;;;;;;;;5.00;99.90;;;;;;5051669;28;19915;-78
2021/12/05 11:43:53;;;;;;;;;;;5.10;99.90;;;;;;5052471;28;19916;-78
2021/12/05 11:46:20;;;;;;;;;;;5.20;99.90;;;;;;5052546;28;19909;-78
2021/12/05 11:48:46;;;;;;;;;;;4.70;99.90;;;;;;5052675;28;19909;-78
2021/12/05 11:51:30;;;;;;;;;;;4.50;99.90;;;;;;5052882;28;20012;-77
2021/12/05 11:54:01;;;;;;;;;;;4.20;99.90;;;;;;5042018;28;19920;-77
2021/12/05 11:56:29;;;;;;;;;;;4.10;99.90;;;;;;5042643;28;19917;-77
2021/12/05 11:59:04;;;;;;;;;;;4.20;99.90;;;;;;5042385;28;20374;-78
2021/12/05 12:01:35;;;;;;;;;;;3.90;99.90;;;;;;5037452;28;20392;-77
2021/12/05 12:04:01;;;;;;;;;;;3.70;99.90;;;;;;5039987;28;20342;-78
2021/12/05 12:06:27;;;;;;;;;;;3.60;99.90;;;;;;5048241;28;20320;-78
2021/12/05 12:08:54;;;;;;;;;;;3.70;99.90;;;;;;5050730;28;19916;-79
2021/12/05 12:11:20;;;;;;;;;;;3.90;99.90;;;;;;5051926;28;19912;-78
2021/12/05 12:13:47;;;;;;;;;;;3.90;99.90;;;;;;5051928;28;19908;-77
2021/12/05 12:16:13;;;;;;;;;;;4.00;99.90;;;;;;5052057;28;19986;-78
2021/12/05 12:18:40;;;;;;;;;;;4.00;99.90;;;;;;5052244;28;20373;-77
2021/12/05 12:21:08;;;;;;;;;;;3.90;99.90;;;;;;5051885;28;19988;-77
2021/12/05 12:23:34;;;;;;;;;;;3.90;99.90;;;;;;5046595;28;19967;-77
2021/12/05 12:26:00;;;;;;;;;;;3.90;99.90;;;;;;5043014;28;19917;-77
2021/12/05 12:28:26;;;;;;;;;;;4.00;99.90;;;;;;5051656;28;19921;-77
2021/12/05 12:30:55;;;;;;;;;;;4.10;99.90;;;;;;5052306;28;19912;-78
2021/12/05 12:33:22;;;;;;;;;;;4.10;99.90;;;;;;5052381;28;19935;-78
2021/12/05 12:35:49;;;;;;;;;;;4.00;99.90;;;;;;5053507;28;20369;-78
2021/12/05 12:38:17;;;;;;;;;;;4.00;99.90;;;;;;5052179;28;19908;-79
2021/12/05 12:40:42;;;;;;;;;;;4.00;99.90;;;;;;5051338;28;19913;-78
2021/12/05 12:43:10;;;;;;;;;;;4.20;99.90;;;;;;5054530;28;19920;-78
2021/12/05 12:45:42;;;;;;;;;;;4.30;99.90;;;;;;5054907;28;20341;-78
2021/12/05 12:48:16;;;;;;;;;;;4.50;99.90;;;;;;5054907;28;19909;-79
2021/12/05 12:50:50;;;;;;;;;;;4.70;99.90;;;;;;5055195;28;20361;-79
2021/12/05 12:53:16;;;;;;;;;;;4.80;99.90;;;;;;5052561;28;19913;-78
2021/12/05 12:55:44;;;;;;;;;;;4.70;99.90;;;;;;5054252;28;19982;-78
2021/12/05 12:58:10;;;;;;;;;;;4.80;99.90;;;;;;5054746;28;20465;-78
2021/12/05 13:00:42;;;;;;;;;;;4.80;99.90;;;;;;5054470;28;19948;-78
2021/12/05 13:03:28;;;;;;;;;;;4.80;99.90;;;;;;5053917;28;19908;-79
2021/12/05 13:11:48;;;;;;;;;;;4.30;99.90;;;;;;5054584;28;19916;-78
2021/12/05 13:14:14;;;;;;;;;;;4.30;99.90;;;;;;5052922;28;19909;-79
2021/12/05 13:16:41;;;;;;;;;;;4.50;99.90;;;;;;5054893;28;19960;-79
2021/12/05 13:19:10;;;;;;;;;;;4.60;99.90;;;;;;5054964;28;19912;-78
2021/12/05 13:21:40;;;;;;;;;;;4.70;99.90;;;;;;5054575;28;19909;-79
2021/12/05 13:24:14;;;;;;;;;;;4.80;99.90;;;;;;5053996;28;19908;-79
2021/12/05 13:26:40;;;;;;;;;;;4.70;99.90;;;;;;5053086;28;20027;-79
2021/12/05 13:29:15;;;;;;;;;;;4.80;99.90;;;;;;5054358;28;19960;-79
2021/12/05 13:31:43;;;;;;;;;;;4.60;99.90;;;;;;5054623;28;19956;-79
2021/12/05 13:34:19;;;;;;;;;;;4.60;99.90;;;;;;5054220;28;19934;-79
2021/12/05 13:36:46;;;;;;;;;;;4.70;99.90;;;;;;5054046;28;19912;-79
2021/12/05 13:39:35;;;;;;;;;;;4.80;99.90;;;;;;5052869;28;19916;-78
2021/12/05 13:42:01;;;;;;;;;;;4.80;99.90;;;;;;5050929;28;19935;-79
2021/12/05 13:44:46;;;;;;;;;;;4.80;99.90;;;;;;5052779;28;20365;-78
2021/12/05 13:47:15;;;;;;;;;;;4.50;99.90;;;;;;5055996;28;19956;-78
2021/12/05 13:49:41;;;;;;;;;;;4.40;99.90;;;;;;5058409;28;19955;-78
2021/12/05 13:52:27;;;;;;;;;;;4.30;99.90;;;;;;5058576;28;19909;-78
2021/12/05 13:54:52;;;;;;;;;;;4.20;99.90;;;;;;5058061;28;19915;-78
2021/12/05 13:57:18;;;;;;;;;;;4.10;99.90;;;;;;5057870;28;19916;-78
2021/12/05 13:59:43;;;;;;;;;;;3.90;99.90;;;;;;5057611;28;19949;-78
2021/12/05 14:02:09;;;;;;;;;;;3.80;99.90;;;;;;5056274;28;19909;-79
2021/12/05 14:04:35;;;;;;;;;;;3.70;99.90;;;;;;5057589;28;19909;-78
2021/12/05 14:07:04;;;;;;;;;;;3.60;99.90;;;;;;5055890;28;19913;-78
2021/12/05 14:10:00;;;;;;;;;;;3.60;99.90;;;;;;5057186;28;19909;-78
2021/12/05 14:12:31;;;;;;;;;;;3.50;99.90;;;;;;5048721;28;20362;-78
2021/12/05 14:15:02;;;;;;;;;;;3.50;99.90;;;;;;5056596;28;19962;-79
2021/12/05 14:17:28;;;;;;;;;;;3.40;99.90;;;;;;5057595;28;19913;-78
2021/12/05 14:20:12;;;;;;;;;;;3.40;99.90;;;;;;5055996;28;20290;-79
2021/12/05 14:22:39;;;;;;;;;;;3.30;99.90;;;;;;5057471;28;19916;-79
2021/12/05 14:25:06;;;;;;;;;;;3.20;99.90;;;;;;5055624;28;19909;-78
2021/12/05 14:27:33;;;;;;;;;;;3.10;99.90;;;;;;5057022;28;19917;-79
2021/12/05 14:29:59;;;;;;;;;;;2.90;99.90;;;;;;5057011;28;19909;-78
2021/12/05 14:32:26;;;;;;;;;;;2.80;99.90;;;;;;5055411;28;19967;-79
2021/12/05 14:34:54;;;;;;;;;;;2.70;99.90;;;;;;5056702;28;19908;-79
2021/12/05 14:37:20;;;;;;;;;;;2.60;99.90;;;;;;5054819;28;19917;-79
2021/12/05 14:39:46;;;;;;;;;;;2.50;99.90;;;;;;5050625;28;19908;-79
2021/12/05 14:42:19;;;;;;;;;;;2.40;99.90;;;;;;5056328;28;19909;-79
2021/12/05 14:44:47;;;;;;;;;;;2.50;99.90;;;;;;5055888;28;19909;-78
2021/12/05 14:47:14;;;;;;;;;;;2.60;99.90;;;;;;5057077;28;20303;-79
2021/12/05 14:49:41;;;;;;;;;;;2.70;99.90;;;;;;5056589;28;19915;-79
2021/12/05 14:52:08;;;;;;;;;;;2.80;99.90;;;;;;5057489;28;20110;-79
2021/12/05 14:54:36;;;;;;;;;;;2.80;99.90;;;;;;5057995;28;20315;-79
2021/12/05 14:57:22;;;;;;;;;;;2.90;99.90;;;;;;5057170;28;19913;-79
2021/12/05 14:59:49;;;;;;;;;;;2.90;99.90;;;;;;5056226;28;20361;-79
2021/12/05 15:02:16;;;;;;;;;;;2.90;99.90;;;;;;5055706;28;19909;-79
2021/12/05 15:04:43;;;;;;;;;;;2.80;99.90;;;;;;5057124;28;20072;-78
2021/12/05 15:07:09;;;;;;;;;;;2.80;99.90;;;;;;5055748;28;20008;-79
2021/12/05 15:09:40;;;;;;;;;;;2.70;99.90;;;;;;5056102;28;20080;-79
2021/12/05 15:12:09;;;;;;;;;;;2.70;99.90;;;;;;5056476;28;19909;-78
2021/12/05 15:14:36;;;;;;;;;;;2.60;99.90;;;;;;5056737;28;20254;-79
2021/12/05 15:17:06;;;;;;;;;;;2.60;99.90;;;;;;5054523;28;20425;-78
2021/12/05 15:19:32;;;;;;;;;;;2.60;99.90;;;;;;5055649;28;19932;-78
2021/12/05 15:21:58;;;;;;;;;;;2.60;99.90;;;;;;5056234;28;19909;-78
2021/12/05 15:24:27;;;;;;;;;;;2.60;99.90;;;;;;5055452;28;20485;-78
2021/12/05 15:26:53;;;;;;;;;;;2.60;99.90;;;;;;5056032;28;19964;-78
2021/12/05 15:29:19;;;;;;;;;;;2.60;99.90;;;;;;5055547;28;19916;-78
2021/12/05 15:31:44;;;;;;;;;;;2.50;99.90;;;;;;5055386;28;20281;-78
2021/12/05 15:34:36;;;;;;;;;;;2.50;99.90;;;;;;5055260;28;19919;-77
2021/12/05 15:37:13;;;;;;;;;;;2.50;99.90;;;;;;5053996;28;20353;-78
2021/12/05 15:39:43;;;;;;;;;;;2.60;99.90;;;;;;5051122;28;20007;-78
2021/12/05 15:42:31;;;;;;;;;;;2.50;99.90;;;;;;5055223;28;19970;-78
2021/12/05 15:44:58;;;;;;;;;;;2.40;99.90;;;;;;5049833;28;19995;-78
2021/12/05 15:47:25;;;;;;;;;;;2.30;99.90;;;;;;5055816;28;19919;-77
2021/12/05 15:49:51;;;;;;;;;;;2.30;99.90;;;;;;5055704;28;19916;-78
2021/12/05 15:52:19;;;;;;;;;;;2.30;99.90;;;;;;5055228;28;19931;-77
2021/12/05 15:54:45;;;;;;;;;;;2.20;99.90;;;;;;5056554;28;19916;-78
2021/12/05 15:57:14;;;;;;;;;;;2.10;99.90;;;;;;5068029;28;19913;-77
2021/12/05 15:59:43;;;;;;;;;;;1.90;99.90;;;;;;5076935;28;19907;-76
2021/12/05 16:02:11;;;;;;;;;;;1.80;99.90;;;;;;5064484;28;19915;-77
2021/12/05 16:04:38;;;;;;;;;;;1.70;99.90;;;;;;5051916;28;20004;-78
2021/12/05 16:07:08;;;;;;;;;;;1.60;99.90;;;;;;5052334;28;19916;-78
2021/12/05 16:09:34;;;;;;;;;;;1.40;99.90;;;;;;5050079;28;19916;-78
2021/12/05 16:12:06;;;;;;;;;;;1.50;99.90;;;;;;5052099;28;19938;-78
2021/12/05 16:14:36;;;;;;;;;;;1.50;99.90;;;;;;5050854;28;19920;-78
2021/12/05 16:17:12;;;;;;;;;;;1.50;99.90;;;;;;5050868;28;19912;-78
2021/12/05 16:19:37;;;;;;;;;;;1.40;99.90;;;;;;5052306;28;19916;-78
2021/12/05 16:22:03;;;;;;;;;;;1.40;99.90;;;;;;5052108;28;19909;-77
2021/12/05 16:24:28;;;;;;;;;;;1.20;99.90;;;;;;5050588;28;20353;-78
2021/12/05 16:26:54;;;;;;;;;;;1.20;99.90;;;;;;5050967;28;19917;-78
2021/12/05 16:29:22;;;;;;;;;;;1.10;99.90;;;;;;5052427;28;20416;-77
2021/12/05 16:31:55;;;;;;;;;;;1.10;99.90;;;;;;5051747;28;19916;-78
2021/12/05 16:34:26;;;;;;;;;;;0.90;99.90;;;;;;5051888;28;19967;-77
2021/12/05 16:36:53;;;;;;;;;;;0.80;99.90;;;;;;5051755;28;19913;-78
2021/12/05 16:39:33;;;;;;;;;;;0.70;99.90;;;;;;5050342;28;20316;-78
2021/12/05 16:42:00;;;;;;;;;;;0.60;99.90;;;;;;5050227;28;19916;-78
2021/12/05 16:44:27;;;;;;;;;;;0.50;99.90;;;;;;5051559;28;20320;-78
2021/12/05 16:47:01;;;;;;;;;;;0.50;99.90;;;;;;5050710;28;19909;-78
2021/12/05 16:49:34;;;;;;;;;;;0.50;99.90;;;;;;5052034;28;20337;-78
2021/12/05 16:52:01;;;;;;;;;;;0.50;99.90;;;;;;5051839;28;19963;-78
2021/12/05 16:54:28;;;;;;;;;;;0.50;99.90;;;;;;5050288;28;19908;-78
2021/12/05 16:57:00;;;;;;;;;;;0.50;99.90;;;;;;5051708;28;20012;-78
2021/12/05 16:59:25;;;;;;;;;;;0.50;99.90;;;;;;5050513;28;20290;-78
2021/12/05 17:02:09;;;;;;;;;;;0.60;99.90;;;;;;5051654;28;19954;-78
2021/12/05 17:05:05;;;;;;;;;;;0.60;99.90;;;;;;5051459;28;19909;-78
2021/12/05 17:07:43;;;;;;;;;;;0.60;99.90;;;;;;5051909;28;20381;-77
2021/12/05 17:10:11;;;;;;;;;;;0.70;99.90;;;;;;5047868;28;19913;-78
2021/12/05 17:12:37;;;;;;;;;;;0.70;99.90;;;;;;5051393;28;20277;-77
2021/12/05 17:15:28;;;;;;;;;;;0.80;99.90;;;;;;5050232;28;19909;-77
2021/12/05 17:18:03;;;;;;;;;;;0.80;99.90;;;;;;5050493;28;19913;-77
2021/12/05 17:20:31;;;;;;;;;;;0.80;99.90;;;;;;5052683;28;19908;-78
2021/12/05 17:23:05;;;;;;;;;;;0.80;99.90;;;;;;5055809;28;19909;-78
2021/12/05 17:25:34;;;;;;;;;;;0.90;99.90;;;;;;5055835;28;19913;-76
2021/12/05 17:28:00;;;;;;;;;;;0.90;99.90;;;;;;5055968;28;19978;-78
2021/12/05 17:30:26;;;;;;;;;;;1.00;99.90;;;;;;5057453;28;19909;-78
2021/12/05 17:32:52;;;;;;;;;;;1.00;99.90;;;;;;5056317;28;19912;-78
2021/12/05 17:35:17;;;;;;;;;;;0.80;99.90;;;;;;5057307;28;19908;-78
2021/12/05 17:37:44;;;;;;;;;;;0.80;99.90;;;;;;5055586;28;19934;-78
2021/12/05 17:40:11;;;;;;;;;;;0.70;99.90;;;;;;5049408;28;19918;-78
2021/12/05 17:42:36;;;;;;;;;;;0.70;99.90;;;;;;5052160;28;19909;-78
2021/12/05 17:45:04;;;;;;;;;;;0.60;99.90;;;;;;5055079;28;19916;-78
2021/12/05 17:47:30;;;;;;;;;;;0.40;99.90;;;;;;5055961;28;20373;-77
2021/12/05 17:49:57;;;;;;;;;;;0.40;99.90;;;;;;5054413;28;19959;-78
2021/12/05 17:52:24;;;;;;;;;;;0.40;99.90;;;;;;5056447;28;19909;-77
2021/12/05 17:57:20;;;;;;;;;;;0.20;99.90;;;;;;5055331;28;19912;-78
2021/12/05 18:05:07;;;;;;;;;;;0.00;99.90;;;;;;5054979;28;19915;-78
2021/12/05 18:07:33;;;;;;;;;;;0.00;99.90;;;;;;5053901;28;19966;-78
2021/12/05 18:09:58;;;;;;;;;;;-0.10;99.90;;;;;;5053325;28;19913;-78
2021/12/05 18:12:33;;;;;;;;;;;-0.10;99.90;;;;;;5054813;28;19909;-77
2021/12/05 18:15:00;;;;;;;;;;;-0.10;99.90;;;;;;5053318;28;19913;-78
2021/12/05 18:17:25;;;;;;;;;;;-0.10;99.90;;;;;;5053437;28;20588;-78
2021/12/05 18:19:51;;;;;;;;;;;-0.10;99.90;;;;;;5052773;28;19912;-78
2021/12/05 18:22:17;;;;;;;;;;;0.00;99.90;;;;;;5054270;28;19935;-78
2021/12/05 18:24:44;;;;;;;;;;;0.00;99.90;;;;;;5054457;28;19966;-77
2021/12/05 18:27:11;;;;;;;;;;;0.00;99.90;;;;;;5054929;28;19921;-78
2021/12/05 18:29:36;;;;;;;;;;;0.00;99.90;;;;;;5055594;28;19916;-77
2021/12/05 18:32:02;;;;;;;;;;;0.10;99.90;;;;;;5053906;28;19909;-78
2021/12/05 18:34:29;;;;;;;;;;;0.00;99.90;;;;;;5054385;28;19954;-78
2021/12/05 18:37:00;;;;;;;;;;;0.10;99.90;;;;;;5055052;28;19952;-78
2021/12/05 18:39:29;;;;;;;;;;;0.10;99.90;;;;;;5050157;28;20183;-78
2021/12/05 18:41:57;;;;;;;;;;;0.00;99.90;;;;;;5051996;28;19913;-77
2021/12/05 18:44:27;;;;;;;;;;;0.00;99.90;;;;;;5053721;28;19913;-77
2021/12/05 18:46:54;;;;;;;;;;;0.10;99.90;;;;;;5054567;28;19913;-77
2021/12/05 18:49:20;;;;;;;;;;;0.10;99.90;;;;;;5055091;28;19955;-77
2021/12/05 18:51:46;;;;;;;;;;;0.20;99.90;;;;;;5055581;28;20335;-78
2021/12/05 18:54:11;;;;;;;;;;;0.30;99.90;;;;;;5055080;28;19951;-78
2021/12/05 18:56:37;;;;;;;;;;;0.30;99.90;;;;;;5054596;28;19912;-77
2021/12/05 18:59:03;;;;;;;;;;;0.20;99.90;;;;;;5055105;28;19977;-77
2021/12/05 19:04:35;;;;;;;;;;;0.20;99.90;;;;;;5055407;28;19955;-77
2021/12/05 19:07:08;;;;;;;;;;;0.40;99.90;;;;;;5055541;28;19939;-78
2021/12/05 19:12:07;;;;;;;;;;;0.30;99.90;;;;;;5054132;28;19913;-78
2021/12/05 19:14:35;;;;;;;;;;;0.40;99.90;;;;;;5054361;28;19916;-78
2021/12/05 19:17:03;;;;;;;;;;;0.40;99.90;;;;;;5050161;28;19931;-78
2021/12/05 19:19:30;;;;;;;;;;;0.40;99.90;;;;;;5053951;28;19909;-78
2021/12/05 19:21:56;;;;;;;;;;;0.40;99.90;;;;;;5054024;28;19915;-77
2021/12/05 19:24:22;;;;;;;;;;;0.40;99.90;;;;;;5054498;28;19909;-78
2021/12/05 19:26:50;;;;;;;;;;;0.40;99.90;;;;;;5055008;28;20007;-78
2021/12/05 19:29:17;;;;;;;;;;;0.30;99.90;;;;;;5054689;28;19962;-77
2021/12/05 19:31:43;;;;;;;;;;;0.30;99.90;;;;;;5054487;28;19916;-77
2021/12/05 19:34:09;;;;;;;;;;;0.40;99.90;;;;;;5054473;28;19909;-78
2021/12/05 19:36:34;;;;;;;;;;;0.50;99.90;;;;;;5055407;28;19943;-78
2021/12/05 19:39:00;;;;;;;;;;;0.50;99.90;;;;;;5055695;28;19913;-77
2021/12/05 19:41:26;;;;;;;;;;;0.50;99.90;;;;;;5053670;28;19932;-78
2021/12/05 19:43:52;;;;;;;;;;;0.50;99.90;;;;;;5054295;28;20011;-77
2021/12/05 19:46:20;;;;;;;;;;;0.50;99.90;;;;;;5052386;28;19955;-77
2021/12/05 19:48:47;;;;;;;;;;;0.50;99.90;;;;;;5054209;28;19913;-77
2021/12/05 19:51:14;;;;;;;;;;;0.50;99.90;;;;;;5054044;28;20297;-78
2021/12/05 19:53:40;;;;;;;;;;;0.50;99.90;;;;;;5054109;28;20007;-78
2021/12/05 19:56:07;;;;;;;;;;;0.50;99.90;;;;;;5053738;28;19963;-77
2021/12/05 19:58:32;;;;;;;;;;;0.60;99.90;;;;;;5052571;28;19908;-77
2021/12/05 20:00:58;;;;;;;;;;;0.60;99.90;;;;;;5054029;28;20013;-78
2021/12/05 20:03:23;;;;;;;;;;;0.60;99.90;;;;;;5053399;28;19909;-78
2021/12/05 20:05:49;;;;;;;;;;;0.60;99.90;;;;;;5054146;28;19909;-78
2021/12/05 20:08:15;;;;;;;;;;;0.60;99.90;;;;;;5054437;28;19909;-78
2021/12/05 20:10:42;;;;;;;;;;;0.50;99.90;;;;;;5054217;28;19995;-78
2021/12/05 20:13:08;;;;;;;;;;;0.60;99.90;;;;;;5053737;28;20328;-78
2021/12/05 20:15:34;;;;;;;;;;;0.60;99.90;;;;;;5053757;28;19912;-78
2021/12/05 20:18:01;;;;;;;;;;;0.50;99.90;;;;;;5053474;28;19931;-78
2021/12/05 20:20:27;;;;;;;;;;;0.50;99.90;;;;;;5052316;28;19908;-78
2021/12/05 20:22:53;;;;;;;;;;;0.60;99.90;;;;;;5052866;28;19908;-76
2021/12/05 20:25:20;;;;;;;;;;;0.60;99.90;;;;;;5052294;28;19923;-78